<?xml version="1.0" encoding="UTF-8" standalone="no" ?>
<gpx xmlns="http://www.topografix.com/GPX/1/1" xmlns:xsi="http://www.w3.org/2001/XMLSchema-instance" xsi:schemaLocation="http://www.topografix.com/GPX/1/1 http://www.topografix.com/GPX/1/1/gpx.xsd" version="1.1" creator="VisuGPX - https://www.visugpx.com">
  <metadata>
    <name>La réveillère-Nord</name>
    <desc><![CDATA[rando gambette: pour des personnes marchant peu]]></desc>
  </metadata>
  <trk>
    <name><![CDATA[14314830-La réveillère-Nord]]></name>
    <trkseg>
      <trkpt lat="46.63976" lon="-1.40191">
        <ele>69</ele>
        <time>2022-02-24T15:34:28Z</time>
      </trkpt>
      <trkpt lat="46.64006" lon="-1.40175">
        <ele>69</ele>
        <time>2022-02-24T15:34:54Z</time>
      </trkpt>
      <trkpt lat="46.64104" lon="-1.40167">
        <ele>68</ele>
        <time>2022-02-24T15:36:12Z</time>
      </trkpt>
      <trkpt lat="46.64167" lon="-1.40157">
        <ele>66</ele>
        <time>2022-02-24T15:37:03Z</time>
      </trkpt>
      <trkpt lat="46.64184" lon="-1.40151">
        <ele>66</ele>
        <time>2022-02-24T15:37:17Z</time>
      </trkpt>
      <trkpt lat="46.64216" lon="-1.40132">
        <ele>66</ele>
        <time>2022-02-24T15:37:45Z</time>
      </trkpt>
      <trkpt lat="46.64227" lon="-1.40127">
        <ele>66</ele>
        <time>2022-02-24T15:37:54Z</time>
      </trkpt>
      <trkpt lat="46.64272" lon="-1.40115">
        <ele>67</ele>
        <time>2022-02-24T15:38:30Z</time>
      </trkpt>
      <trkpt lat="46.64277" lon="-1.40112">
        <ele>67</ele>
        <time>2022-02-24T15:38:35Z</time>
      </trkpt>
      <trkpt lat="46.6428" lon="-1.40106">
        <ele>67</ele>
        <time>2022-02-24T15:38:39Z</time>
      </trkpt>
      <trkpt lat="46.64281" lon="-1.40099">
        <ele>67</ele>
        <time>2022-02-24T15:38:43Z</time>
      </trkpt>
      <trkpt lat="46.64271" lon="-1.39932">
        <ele>70</ele>
        <time>2022-02-24T15:40:15Z</time>
      </trkpt>
      <trkpt lat="46.64288" lon="-1.39925">
        <ele>70</ele>
        <time>2022-02-24T15:40:29Z</time>
      </trkpt>
      <trkpt lat="46.64401" lon="-1.39902">
        <ele>69</ele>
        <time>2022-02-24T15:42:00Z</time>
      </trkpt>
      <trkpt lat="46.64489" lon="-1.3989">
        <ele>71</ele>
        <time>2022-02-24T15:43:11Z</time>
      </trkpt>
      <trkpt lat="46.64465" lon="-1.39797">
        <ele>71</ele>
        <time>2022-02-24T15:44:06Z</time>
      </trkpt>
      <trkpt lat="46.64452" lon="-1.39721">
        <ele>71</ele>
        <time>2022-02-24T15:44:49Z</time>
      </trkpt>
      <trkpt lat="46.64436" lon="-1.39602">
        <ele>71</ele>
        <time>2022-02-24T15:45:56Z</time>
      </trkpt>
      <trkpt lat="46.64429" lon="-1.39574">
        <ele>72</ele>
        <time>2022-02-24T15:46:12Z</time>
      </trkpt>
      <trkpt lat="46.64418" lon="-1.39541">
        <ele>72</ele>
        <time>2022-02-24T15:46:32Z</time>
      </trkpt>
      <trkpt lat="46.64404" lon="-1.39512">
        <ele>72</ele>
        <time>2022-02-24T15:46:52Z</time>
      </trkpt>
      <trkpt lat="46.64375" lon="-1.39464">
        <ele>71</ele>
        <time>2022-02-24T15:47:27Z</time>
      </trkpt>
      <trkpt lat="46.64354" lon="-1.39421">
        <ele>71</ele>
        <time>2022-02-24T15:47:56Z</time>
      </trkpt>
      <trkpt lat="46.64332" lon="-1.39364">
        <ele>72</ele>
        <time>2022-02-24T15:48:32Z</time>
      </trkpt>
      <trkpt lat="46.64319" lon="-1.39325">
        <ele>72</ele>
        <time>2022-02-24T15:48:55Z</time>
      </trkpt>
      <trkpt lat="46.6432" lon="-1.39328">
        <ele>72</ele>
        <time>2022-02-24T15:48:57Z</time>
      </trkpt>
      <trkpt lat="46.64314" lon="-1.39331">
        <ele>72</ele>
        <time>2022-02-24T15:49:02Z</time>
      </trkpt>
      <trkpt lat="46.64308" lon="-1.39331">
        <ele>72</ele>
        <time>2022-02-24T15:49:07Z</time>
      </trkpt>
      <trkpt lat="46.64301" lon="-1.39327">
        <ele>72</ele>
        <time>2022-02-24T15:49:13Z</time>
      </trkpt>
      <trkpt lat="46.64181" lon="-1.39221">
        <ele>71</ele>
        <time>2022-02-24T15:51:06Z</time>
      </trkpt>
      <trkpt lat="46.64165" lon="-1.3921">
        <ele>71</ele>
        <time>2022-02-24T15:51:20Z</time>
      </trkpt>
      <trkpt lat="46.64127" lon="-1.3919">
        <ele>70</ele>
        <time>2022-02-24T15:51:52Z</time>
      </trkpt>
      <trkpt lat="46.64103" lon="-1.3918">
        <ele>70</ele>
        <time>2022-02-24T15:52:12Z</time>
      </trkpt>
      <trkpt lat="46.64001" lon="-1.39154">
        <ele>64</ele>
        <time>2022-02-24T15:53:35Z</time>
      </trkpt>
      <trkpt lat="46.63973" lon="-1.39152">
        <ele>62</ele>
        <time>2022-02-24T15:53:57Z</time>
      </trkpt>
      <trkpt lat="46.63956" lon="-1.39148">
        <ele>61</ele>
        <time>2022-02-24T15:54:11Z</time>
      </trkpt>
      <trkpt lat="46.63942" lon="-1.39141">
        <ele>60</ele>
        <time>2022-02-24T15:54:23Z</time>
      </trkpt>
      <trkpt lat="46.63869" lon="-1.39088">
        <ele>59</ele>
        <time>2022-02-24T15:55:28Z</time>
      </trkpt>
      <trkpt lat="46.63771" lon="-1.39008">
        <ele>65</ele>
        <time>2022-02-24T15:56:58Z</time>
      </trkpt>
      <trkpt lat="46.6375" lon="-1.38985">
        <ele>66</ele>
        <time>2022-02-24T15:57:19Z</time>
      </trkpt>
      <trkpt lat="46.63727" lon="-1.38953">
        <ele>66</ele>
        <time>2022-02-24T15:57:45Z</time>
      </trkpt>
      <trkpt lat="46.63707" lon="-1.38933">
        <ele>67</ele>
        <time>2022-02-24T15:58:04Z</time>
      </trkpt>
      <trkpt lat="46.63685" lon="-1.38915">
        <ele>68</ele>
        <time>2022-02-24T15:58:24Z</time>
      </trkpt>
      <trkpt lat="46.63666" lon="-1.38903">
        <ele>68</ele>
        <time>2022-02-24T15:58:41Z</time>
      </trkpt>
      <trkpt lat="46.63644" lon="-1.38894">
        <ele>68</ele>
        <time>2022-02-24T15:58:59Z</time>
      </trkpt>
      <trkpt lat="46.63606" lon="-1.38888">
        <ele>68</ele>
        <time>2022-02-24T15:59:30Z</time>
      </trkpt>
      <trkpt lat="46.63578" lon="-1.38887">
        <ele>68</ele>
        <time>2022-02-24T15:59:52Z</time>
      </trkpt>
      <trkpt lat="46.63515" lon="-1.38899">
        <ele>67</ele>
        <time>2022-02-24T16:00:43Z</time>
      </trkpt>
      <trkpt lat="46.63504" lon="-1.38899">
        <ele>67</ele>
        <time>2022-02-24T16:00:52Z</time>
      </trkpt>
      <trkpt lat="46.63431" lon="-1.38886">
        <ele>65</ele>
        <time>2022-02-24T16:01:51Z</time>
      </trkpt>
      <trkpt lat="46.63409" lon="-1.38887">
        <ele>64</ele>
        <time>2022-02-24T16:02:09Z</time>
      </trkpt>
      <trkpt lat="46.634" lon="-1.38889">
        <ele>63</ele>
        <time>2022-02-24T16:02:16Z</time>
      </trkpt>
      <trkpt lat="46.6339" lon="-1.38895">
        <ele>63</ele>
        <time>2022-02-24T16:02:25Z</time>
      </trkpt>
      <trkpt lat="46.63382" lon="-1.38906">
        <ele>63</ele>
        <time>2022-02-24T16:02:33Z</time>
      </trkpt>
      <trkpt lat="46.63376" lon="-1.38918">
        <ele>63</ele>
        <time>2022-02-24T16:02:42Z</time>
      </trkpt>
      <trkpt lat="46.63352" lon="-1.38995">
        <ele>62</ele>
        <time>2022-02-24T16:03:28Z</time>
      </trkpt>
      <trkpt lat="46.63331" lon="-1.39053">
        <ele>61</ele>
        <time>2022-02-24T16:04:04Z</time>
      </trkpt>
      <trkpt lat="46.633" lon="-1.39208">
        <ele>59</ele>
        <time>2022-02-24T16:05:33Z</time>
      </trkpt>
      <trkpt lat="46.63285" lon="-1.39299">
        <ele>59</ele>
        <time>2022-02-24T16:06:24Z</time>
      </trkpt>
      <trkpt lat="46.63283" lon="-1.39373">
        <ele>58</ele>
        <time>2022-02-24T16:07:05Z</time>
      </trkpt>
      <trkpt lat="46.63265" lon="-1.39453">
        <ele>56</ele>
        <time>2022-02-24T16:07:51Z</time>
      </trkpt>
      <trkpt lat="46.63238" lon="-1.39532">
        <ele>55</ele>
        <time>2022-02-24T16:08:40Z</time>
      </trkpt>
      <trkpt lat="46.63217" lon="-1.39613">
        <ele>57</ele>
        <time>2022-02-24T16:09:27Z</time>
      </trkpt>
      <trkpt lat="46.63225" lon="-1.3969">
        <ele>58</ele>
        <time>2022-02-24T16:10:10Z</time>
      </trkpt>
      <trkpt lat="46.63223" lon="-1.39702">
        <ele>58</ele>
        <time>2022-02-24T16:10:17Z</time>
      </trkpt>
      <trkpt lat="46.63246" lon="-1.397">
        <ele>58</ele>
        <time>2022-02-24T16:10:35Z</time>
      </trkpt>
      <trkpt lat="46.63273" lon="-1.39706">
        <ele>57</ele>
        <time>2022-02-24T16:10:57Z</time>
      </trkpt>
      <trkpt lat="46.63274" lon="-1.39726">
        <ele>56</ele>
        <time>2022-02-24T16:11:08Z</time>
      </trkpt>
      <trkpt lat="46.63294" lon="-1.39751">
        <ele>55</ele>
        <time>2022-02-24T16:11:29Z</time>
      </trkpt>
      <trkpt lat="46.63299" lon="-1.39782">
        <ele>55</ele>
        <time>2022-02-24T16:11:47Z</time>
      </trkpt>
      <trkpt lat="46.63302" lon="-1.39826">
        <ele>55</ele>
        <time>2022-02-24T16:12:11Z</time>
      </trkpt>
      <trkpt lat="46.63306" lon="-1.39872">
        <ele>53</ele>
        <time>2022-02-24T16:12:37Z</time>
      </trkpt>
      <trkpt lat="46.63306" lon="-1.39904">
        <ele>52</ele>
        <time>2022-02-24T16:12:54Z</time>
      </trkpt>
      <trkpt lat="46.63315" lon="-1.39912">
        <ele>51</ele>
        <time>2022-02-24T16:13:03Z</time>
      </trkpt>
      <trkpt lat="46.63337" lon="-1.39922">
        <ele>50</ele>
        <time>2022-02-24T16:13:21Z</time>
      </trkpt>
      <trkpt lat="46.63349" lon="-1.39958">
        <ele>51</ele>
        <time>2022-02-24T16:13:43Z</time>
      </trkpt>
      <trkpt lat="46.63364" lon="-1.39973">
        <ele>51</ele>
        <time>2022-02-24T16:13:58Z</time>
      </trkpt>
      <trkpt lat="46.63372" lon="-1.39994">
        <ele>51</ele>
        <time>2022-02-24T16:14:11Z</time>
      </trkpt>
      <trkpt lat="46.63367" lon="-1.40063">
        <ele>51</ele>
        <time>2022-02-24T16:14:49Z</time>
      </trkpt>
      <trkpt lat="46.63361" lon="-1.4009">
        <ele>51</ele>
        <time>2022-02-24T16:15:05Z</time>
      </trkpt>
      <trkpt lat="46.63363" lon="-1.40126">
        <ele>50</ele>
        <time>2022-02-24T16:15:25Z</time>
      </trkpt>
      <trkpt lat="46.63354" lon="-1.40159">
        <ele>50</ele>
        <time>2022-02-24T16:15:44Z</time>
      </trkpt>
      <trkpt lat="46.63346" lon="-1.40184">
        <ele>50</ele>
        <time>2022-02-24T16:15:59Z</time>
      </trkpt>
      <trkpt lat="46.63325" lon="-1.40219">
        <ele>50</ele>
        <time>2022-02-24T16:16:25Z</time>
      </trkpt>
      <trkpt lat="46.63277" lon="-1.40279">
        <ele>50</ele>
        <time>2022-02-24T16:17:15Z</time>
      </trkpt>
      <trkpt lat="46.63215" lon="-1.40371">
        <ele>51</ele>
        <time>2022-02-24T16:18:26Z</time>
      </trkpt>
      <trkpt lat="46.63183" lon="-1.40415">
        <ele>50</ele>
        <time>2022-02-24T16:19:02Z</time>
      </trkpt>
      <trkpt lat="46.63173" lon="-1.40462">
        <ele>50</ele>
        <time>2022-02-24T16:19:29Z</time>
      </trkpt>
      <trkpt lat="46.6317" lon="-1.40543">
        <ele>48</ele>
        <time>2022-02-24T16:20:13Z</time>
      </trkpt>
      <trkpt lat="46.63174" lon="-1.40547">
        <ele>48</ele>
        <time>2022-02-24T16:20:17Z</time>
      </trkpt>
      <trkpt lat="46.63186" lon="-1.40533">
        <ele>48</ele>
        <time>2022-02-24T16:20:29Z</time>
      </trkpt>
      <trkpt lat="46.63211" lon="-1.40516">
        <ele>50</ele>
        <time>2022-02-24T16:20:52Z</time>
      </trkpt>
      <trkpt lat="46.63216" lon="-1.40518">
        <ele>50</ele>
        <time>2022-02-24T16:20:56Z</time>
      </trkpt>
      <trkpt lat="46.63215" lon="-1.40534">
        <ele>49</ele>
        <time>2022-02-24T16:21:05Z</time>
      </trkpt>
      <trkpt lat="46.6322" lon="-1.40534">
        <ele>50</ele>
        <time>2022-02-24T16:21:09Z</time>
      </trkpt>
      <trkpt lat="46.63224" lon="-1.40509">
        <ele>50</ele>
        <time>2022-02-24T16:21:23Z</time>
      </trkpt>
      <trkpt lat="46.63256" lon="-1.40448">
        <ele>52</ele>
        <time>2022-02-24T16:22:05Z</time>
      </trkpt>
      <trkpt lat="46.63273" lon="-1.40426">
        <ele>53</ele>
        <time>2022-02-24T16:22:23Z</time>
      </trkpt>
      <trkpt lat="46.63277" lon="-1.40414">
        <ele>53</ele>
        <time>2022-02-24T16:22:30Z</time>
      </trkpt>
      <trkpt lat="46.63441" lon="-1.40211">
        <ele>56</ele>
        <time>2022-02-24T16:25:23Z</time>
      </trkpt>
      <trkpt lat="46.63544" lon="-1.40111">
        <ele>60</ele>
        <time>2022-02-24T16:27:02Z</time>
      </trkpt>
      <trkpt lat="46.6357" lon="-1.40114">
        <ele>60</ele>
        <time>2022-02-24T16:27:23Z</time>
      </trkpt>
      <trkpt lat="46.636" lon="-1.40113">
        <ele>61</ele>
        <time>2022-02-24T16:27:47Z</time>
      </trkpt>
      <trkpt lat="46.63633" lon="-1.40103">
        <ele>62</ele>
        <time>2022-02-24T16:28:14Z</time>
      </trkpt>
      <trkpt lat="46.63674" lon="-1.40083">
        <ele>63</ele>
        <time>2022-02-24T16:28:48Z</time>
      </trkpt>
      <trkpt lat="46.63689" lon="-1.40081">
        <ele>64</ele>
        <time>2022-02-24T16:29:00Z</time>
      </trkpt>
      <trkpt lat="46.63709" lon="-1.40096">
        <ele>65</ele>
        <time>2022-02-24T16:29:18Z</time>
      </trkpt>
      <trkpt lat="46.63743" lon="-1.4013">
        <ele>66</ele>
        <time>2022-02-24T16:29:51Z</time>
      </trkpt>
      <trkpt lat="46.6381" lon="-1.40182">
        <ele>68</ele>
        <time>2022-02-24T16:30:52Z</time>
      </trkpt>
      <trkpt lat="46.63859" lon="-1.40223">
        <ele>68</ele>
        <time>2022-02-24T16:31:37Z</time>
      </trkpt>
      <trkpt lat="46.63877" lon="-1.40234">
        <ele>68</ele>
        <time>2022-02-24T16:31:53Z</time>
      </trkpt>
      <trkpt lat="46.63895" lon="-1.40237">
        <ele>68</ele>
        <time>2022-02-24T16:32:08Z</time>
      </trkpt>
      <trkpt lat="46.63902" lon="-1.40248">
        <ele>68</ele>
        <time>2022-02-24T16:32:16Z</time>
      </trkpt>
      <trkpt lat="46.63915" lon="-1.40238">
        <ele>68</ele>
        <time>2022-02-24T16:32:28Z</time>
      </trkpt>
      <trkpt lat="46.63954" lon="-1.40221">
        <ele>68</ele>
        <time>2022-02-24T16:33:00Z</time>
      </trkpt>
      <trkpt lat="46.63958" lon="-1.40216">
        <ele>68</ele>
        <time>2022-02-24T16:33:04Z</time>
      </trkpt>
    </trkseg>
  </trk>
</gpx>